Kandilousa — SYIF — position and weather

sailwx.info

Track history (hours):
 
Tides and Currents Weather Stations Pressure Air Temp Water Temp Dewpoint Dewpoint Depression Visibility Wind Speed Wind Dir Waves Ship Positions

Kandilousa

Last reported at 2014-Sep-30 03:27 UTC. Time now 2014-Sep-30 20:01 UTC.
Position N 38°42' W 073°19'.

Length 183 m; draft 8 m.

Type: Tanker. MMSI: 239354000.

Date/timePositionNaut miles runAvg speedWind from/ knotsBaromVisibWave heightAir tempDewpointWater temp
2014-Sep-30 03:27N 38°42' W 073°19'1 0.8
2014-Sep-30 02:33N 38°42' W 073°18'1 1.0
2014-Sep-30 01:27N 38°41' W 073°17'1 1.1
2014-Sep-30 00:33N 38°41' W 073°15'1 1.0
2014-Sep-29 23:33N 38°41' W 073°14'1 0.9
2014-Sep-29 22:33N 38°41' W 073°13'1 0.8
2014-Sep-29 21:33N 38°41' W 073°12'1 0.7
2014-Sep-29 20:33N 38°42' W 073°11'1 0.7
2014-Sep-29 19:21N 38°43' W 073°11'2 1.9
2014-Sep-29 18:33N 38°43' W 073°13'0 0.2
2014-Sep-29 17:27N 38°43' W 073°13'0 0.2
2014-Sep-29 16:33N 38°43' W 073°13'0 0.3
2014-Sep-29 15:30N 38°42' W 073°12'0 0.3
2014-Sep-29 14:30N 38°42' W 073°12'0 0.4
2014-Sep-29 13:33N 38°42' W 073°12'0 0.2
2014-Sep-29 12:33N 38°42' W 073°11'0 0.1
2014-Sep-29 11:30N 38°42' W 073°11'0 0.3
2014-Sep-29 10:18N 38°42' W 073°11'0 0.4
2014-Sep-29 09:24N 38°42' W 073°10'0 0.4
2014-Sep-29 08:33N 38°42' W 073°10'0 0.4
2014-Sep-29 07:33N 38°42' W 073°10'0 0.4
2014-Sep-29 06:33N 38°42' W 073°09'1 0.5
2014-Sep-29 05:30N 38°42' W 073°08'1 0.6
2014-Sep-29 04:33N 38°42' W 073°08'1 0.6
2014-Sep-29 03:33N 38°43' W 073°07'1 0.7
2014-Sep-29 02:33N 38°43' W 073°06'1 0.8
2014-Sep-29 01:33N 38°43' W 073°05'1 0.8
2014-Sep-29 00:33N 38°43' W 073°04'1 0.8
2014-Sep-28 23:33N 38°44' W 073°03'2 0.8
2014-Sep-28 21:27N 38°45' W 073°01'1 0.9
2014-Sep-28 20:09N 38°46' W 073°01'1 0.9
2014-Sep-28 19:33N 38°46' W 073°00'4 0.8
2014-Sep-28 14:09N 38°49' W 072°56'1 1.2
2014-Sep-28 13:33N 38°49' W 072°55'1 1.3
2014-Sep-28 12:24N 38°50' W 072°53'1 1.2
2014-Sep-28 11:12N 38°50' W 072°52'1 1.2
2014-Sep-28 10:33N 38°51' W 072°51'1 1.3
2014-Sep-28 09:30N 38°52' W 072°50'1 1.3
2014-Sep-28 08:27N 38°53' W 072°49'4 1.3
2014-Sep-28 05:24N 38°57' W 072°46'1 1.2
2014-Sep-28 04:33N 38°57' W 072°46'1 1.1
2014-Sep-28 03:33N 38°59' W 072°45'1 0.9
2014-Sep-28 02:33N 38°59' W 072°45'1 0.8
2014-Sep-28 01:33N 39°00' W 072°44'3 1.1
2014-Sep-27 22:30N 39°02' W 072°41'1 1.2
2014-Sep-27 21:33N 39°03' W 072°40'1 1.3
2014-Sep-27 20:33N 39°04' W 072°38'2 1.2
2014-Sep-27 19:18N 39°05' W 072°37'1 1.2
2014-Sep-27 18:33N 39°06' W 072°37'1 1.2
2014-Sep-27 17:33N 39°07' W 072°36'1 1.3
2014-Sep-27 16:33N 39°08' W 072°36'1 1.3
2014-Sep-27 15:30N 39°09' W 072°35'1 1.4
2014-Sep-27 14:33N 39°11' W 072°34'2 1.6
2014-Sep-27 13:09N 39°13' W 072°33'1 1.5
2014-Sep-27 12:27N 39°14' W 072°33'1 1.5
2014-Sep-27 11:33N 39°15' W 072°33'1 1.5
2014-Sep-27 10:33N 39°17' W 072°32'1 1.3
2014-Sep-27 09:33N 39°18' W 072°32'1 1.3
2014-Sep-27 08:33N 39°19' W 072°31'1 1.5
2014-Sep-27 07:33N 39°20' W 072°30'2 1.9
2014-Sep-27 06:30N 39°22' W 072°29'2 1.6
2014-Sep-27 05:33N 39°23' W 072°27'2 1.8
2014-Sep-27 04:33N 39°25' W 072°26'2 2.0
2014-Sep-27 03:33N 39°26' W 072°25'2 2.1
2014-Sep-27 02:33N 39°28' W 072°24'2 1.9
2014-Sep-27 01:33N 39°30' W 072°23'2 1.8
2014-Sep-27 00:33N 39°32' W 072°22'2 1.9
2014-Sep-26 23:33N 39°34' W 072°21'2 1.9
2014-Sep-26 22:33N 39°35' W 072°20'2 1.9
2014-Sep-26 21:33N 39°37' W 072°19'2 2.0
2014-Sep-26 20:34N 39°39' W 072°18'2 2.0
2014-Sep-26 19:34N 39°41' W 072°17'2 2.2
2014-Sep-26 18:33N 39°43' W 072°16'2 2.2
2014-Sep-26 17:32N 39°45' W 072°15'2 2.3
2014-Sep-26 16:34N 39°47' W 072°14'2 2.3
2014-Sep-26 15:34N 39°49' W 072°12'2 1.7
2014-Sep-26 14:33N 39°50' W 072°14'4 3.9
2014-Sep-26 13:31N 39°49' W 072°19'2 2.1
2014-Sep-26 12:23N 39°50' W 072°22'2 2.2
2014-Sep-26 11:28N 39°50' W 072°25'6 2.7
2014-Sep-26 09:23N 39°52' W 072°32'2 2.2
2014-Sep-26 08:33N 39°52' W 072°34'2 2.1
2014-Sep-26 07:32N 39°52' W 072°37'3 2.3
2014-Sep-26 06:23N 39°53' W 072°40'2 2.1
2014-Sep-26 05:30N 39°53' W 072°43'2 1.8
2014-Sep-26 04:13N 39°53' W 072°46'1 1.8
2014-Sep-26 03:29N 39°53' W 072°47'2 1.6
2014-Sep-26 02:18N 39°54' W 072°50'17 3.5
2014-Sep-25 21:19N 39°58' W 073°12'8 7.2
2014-Sep-25 20:11N 40°02' W 073°21'2110.1
2014-Sep-25 18:04N 40°18' W 073°39'510.4
2014-Sep-25 17:33N 40°22' W 073°44'1010.4
2014-Sep-25 16:33N 40°32' W 073°41'0 0.2
2014-Sep-25 15:33N 40°32' W 073°42'0 0.0
2014-Sep-25 14:27N 40°32' W 073°42'0 0.0
2014-Sep-25 13:21N 40°32' W 073°42'0 0.1
2014-Sep-25 12:30N 40°32' W 073°42'0 0.0
2014-Sep-25 11:27N 40°32' W 073°42'0 0.0
2014-Sep-25 10:33N 40°32' W 073°42'0 0.0
2014-Sep-25 09:33N 40°32' W 073°42'0 0.0
2014-Sep-25 08:33N 40°32' W 073°42'0 0.0
2014-Sep-25 07:33N 40°32' W 073°42'0 0.0
2014-Sep-25 06:24N 40°32' W 073°42'0 0.0
2014-Sep-25 05:33N 40°32' W 073°41'0 0.0
2014-Sep-25 04:33N 40°32' W 073°41'0 0.0
2014-Sep-25 03:27N 40°32' W 073°41'0 0.0
2014-Sep-25 02:27N 40°32' W 073°41'0 0.0
2014-Sep-25 01:24N 40°32' W 073°41'0 0.0
2014-Sep-25 00:33N 40°32' W 073°41'0 0.0
2014-Sep-24 23:27N 40°32' W 073°41'0 0.0
2014-Sep-24 22:33N 40°32' W 073°41'0 0.0
2014-Sep-24 21:33N 40°32' W 073°41'0 0.0
2014-Sep-24 20:33N 40°32' W 073°41'0 0.0
2014-Sep-24 19:33N 40°32' W 073°41'0 0.0
2014-Sep-24 18:33N 40°32' W 073°41'0 0.0
2014-Sep-24 17:33N 40°32' W 073°41'0 0.0
2014-Sep-24 16:21N 40°32' W 073°41'0 0.1
2014-Sep-24 15:33N 40°32' W 073°41'0 0.0
2014-Sep-24 14:27N 40°32' W 073°41'0 0.1
2014-Sep-24 13:30N 40°32' W 073°41'0 0.0
2014-Sep-24 12:33N 40°32' W 073°41'0 0.0
2014-Sep-24 11:30N 40°32' W 073°41'0 0.0
2014-Sep-24 10:33N 40°32' W 073°41'0 0.1
2014-Sep-24 09:33N 40°32' W 073°41'0 0.1
2014-Sep-24 08:30N 40°32' W 073°41'0 0.0
2014-Sep-24 07:33N 40°32' W 073°41'0 0.0
2014-Sep-24 06:21N 40°32' W 073°41'0 0.0
2014-Sep-24 05:30N 40°32' W 073°41'0 0.0
2014-Sep-24 04:09N 40°32' W 073°41'0 0.0
2014-Sep-24 01:12N 40°32' W 073°41'0 0.0
2014-Sep-24 00:30N 40°32' W 073°41'0 0.0
2014-Sep-23 23:21N 40°32' W 073°41'0 0.0
2014-Sep-23 22:33N 40°32' W 073°41'0 0.0
2014-Sep-23 21:33N 40°32' W 073°41'0 0.0
2014-Sep-23 20:33N 40°32' W 073°41'0 0.0
2014-Sep-23 19:15N 40°32' W 073°41'0 0.0
2014-Sep-23 18:33N 40°32' W 073°41'0 0.0
2014-Sep-23 16:33N 40°32' W 073°41'0 0.0
2014-Sep-23 15:27N 40°32' W 073°41'0 0.0
2014-Sep-23 14:33N 40°32' W 073°41'0 0.0
2014-Sep-23 13:33N 40°32' W 073°41'0 0.0
2014-Sep-23 12:24N 40°32' W 073°41'0 0.0
2014-Sep-23 10:33N 40°32' W 073°41'0 0.0
2014-Sep-23 09:33N 40°32' W 073°41'0 0.0
2014-Sep-23 08:33N 40°32' W 073°41'0 0.0
2014-Sep-23 07:30N 40°32' W 073°41'0 0.0
2014-Sep-23 06:33N 40°32' W 073°41'0 0.0
2014-Sep-23 05:24N 40°32' W 073°41'0 0.0
2014-Sep-23 04:30N 40°32' W 073°41'0 0.0
2014-Sep-23 03:33N 40°32' W 073°41'0 0.0
2014-Sep-23 02:33N 40°32' W 073°41'0 0.0
2014-Sep-23 01:33N 40°32' W 073°41'0 0.1
2014-Sep-23 00:33N 40°32' W 073°41'0 0.0
2014-Sep-22 23:33N 40°32' W 073°41'0 0.0
2014-Sep-22 22:30N 40°32' W 073°41'0 0.1
2014-Sep-22 21:12N 40°32' W 073°41'0 0.0
2014-Sep-22 20:27N 40°32' W 073°41'0 0.0
2014-Sep-22 19:12N 40°32' W 073°41'0 0.0
2014-Sep-22 17:33N 40°32' W 073°41'0 0.0
2014-Sep-22 16:21N 40°32' W 073°41'0 0.0
2014-Sep-22 15:24N 40°32' W 073°41'0 0.0
2014-Sep-22 14:27N 40°32' W 073°41'0 0.0
2014-Sep-22 13:21N 40°32' W 073°41'0 0.0
2014-Sep-22 12:33N 40°32' W 073°41'0 0.0
2014-Sep-22 11:21N 40°32' W 073°41'0 0.0
2014-Sep-22 10:33N 40°32' W 073°41'0 0.0
2014-Sep-22 09:33N 40°32' W 073°41'0 0.0
2014-Sep-22 08:33N 40°32' W 073°41'0 0.0
2014-Sep-22 07:33N 40°32' W 073°41'0 0.0
2014-Sep-22 06:33N 40°32' W 073°41'0 0.1
2014-Sep-22 05:27N 40°32' W 073°41'0 0.1
2014-Sep-22 04:33N 40°33' W 073°41'0 0.0
2014-Sep-22 03:30N 40°33' W 073°41'0 0.0
2014-Sep-22 02:33N 40°33' W 073°41'0 0.0
2014-Sep-22 01:33N 40°33' W 073°41'0 0.1
2014-Sep-22 00:15N 40°33' W 073°41'0 0.0
2014-Sep-21 23:33N 40°33' W 073°41'0 0.0
2014-Sep-21 22:33N 40°33' W 073°41'0 0.0
2014-Sep-21 21:30N 40°33' W 073°41'0 0.0
2014-Sep-21 20:33N 40°33' W 073°41'0 0.0
2014-Sep-21 19:33N 40°33' W 073°41'0 0.0
2014-Sep-21 18:33N 40°33' W 073°41'0 0.0
2014-Sep-21 17:33N 40°33' W 073°41'0 0.0
2014-Sep-21 16:30N 40°33' W 073°41'0 0.0
2014-Sep-21 15:30N 40°33' W 073°41'0 0.0
2014-Sep-21 14:06N 40°33' W 073°41'0 0.0
2014-Sep-21 13:24N 40°33' W 073°41'0 0.0
2014-Sep-21 12:33N 40°33' W 073°41'0 0.0
2014-Sep-21 11:24N 40°33' W 073°41'0 0.0
2014-Sep-21 09:33N 40°33' W 073°41'0 0.0
2014-Sep-21 02:12N 40°33' W 073°41'0 0.0
2014-Sep-21 01:33N 40°33' W 073°41'0 0.0
2014-Sep-21 00:27N 40°33' W 073°41'0 0.0
2014-Sep-20 23:33N 40°33' W 073°41'0 0.0
2014-Sep-20 22:32N 40°33' W 073°41'0 0.0
2014-Sep-20 21:23N 40°33' W 073°41'0 0.0
2014-Sep-20 20:29N 40°33' W 073°41'0 0.0
2014-Sep-20 18:20N 40°33' W 073°41'0 0.0
2014-Sep-20 16:23N 40°33' W 073°41'0 0.0
2014-Sep-20 15:20N 40°33' W 073°41'0 0.0
2014-Sep-20 14:29N 40°33' W 073°41'0 0.0
2014-Sep-20 13:20N 40°33' W 073°41'0 0.0
2014-Sep-20 12:32N 40°33' W 073°41'0 0.0
2014-Sep-20 11:29N 40°33' W 073°41'0 0.0
2014-Sep-20 10:20N 40°32' W 073°41'0 0.0
2014-Sep-20 09:17N 40°32' W 073°41'0 0.0
2014-Sep-20 08:29N 40°32' W 073°41'0 0.0
2014-Sep-20 07:26N 40°32' W 073°41'0 0.0
2014-Sep-20 06:32N 40°32' W 073°41'0 0.0
2014-Sep-20 05:32N 40°32' W 073°41'0 0.0
2014-Sep-20 04:32N 40°32' W 073°41'0 0.0
2014-Sep-20 03:29N 40°32' W 073°41'  
Track history (hours):
 
Tides and Currents Weather Stations Pressure Air Temp Water Temp Dewpoint Dewpoint Depression Visibility Wind Speed Wind Dir Waves Ship Positions

Kandilousa

Last reported at 2014-Sep-30 03:27 UTC. Time now 2014-Sep-30 20:01 UTC.
Position N 38°42' W 073°19'.

Length 183 m; draft 8 m.

Type: Tanker. MMSI: 239354000.

Date/timePositionNaut miles runAvg speedWind from/ knotsBaromVisibWave heightAir tempDewpointWater temp
2014-Sep-30 03:27N 38°42' W 073°19'1 0.8
2014-Sep-30 02:33N 38°42' W 073°18'1 1.0
2014-Sep-30 01:27N 38°41' W 073°17'1 1.1
2014-Sep-30 00:33N 38°41' W 073°15'1 1.0
2014-Sep-29 23:33N 38°41' W 073°14'1 0.9
2014-Sep-29 22:33N 38°41' W 073°13'1 0.8
2014-Sep-29 21:33N 38°41' W 073°12'1 0.7
2014-Sep-29 20:33N 38°42' W 073°11'1 0.7
2014-Sep-29 19:21N 38°43' W 073°11'2 1.9
2014-Sep-29 18:33N 38°43' W 073°13'0 0.2
2014-Sep-29 17:27N 38°43' W 073°13'0 0.2
2014-Sep-29 16:33N 38°43' W 073°13'0 0.3
2014-Sep-29 15:30N 38°42' W 073°12'0 0.3
2014-Sep-29 14:30N 38°42' W 073°12'0 0.4
2014-Sep-29 13:33N 38°42' W 073°12'0 0.2
2014-Sep-29 12:33N 38°42' W 073°11'0 0.1
2014-Sep-29 11:30N 38°42' W 073°11'0 0.3
2014-Sep-29 10:18N 38°42' W 073°11'0 0.4
2014-Sep-29 09:24N 38°42' W 073°10'0 0.4
2014-Sep-29 08:33N 38°42' W 073°10'0 0.4
2014-Sep-29 07:33N 38°42' W 073°10'0 0.4
2014-Sep-29 06:33N 38°42' W 073°09'1 0.5
2014-Sep-29 05:30N 38°42' W 073°08'1 0.6
2014-Sep-29 04:33N 38°42' W 073°08'1 0.6
2014-Sep-29 03:33N 38°43' W 073°07'1 0.7
2014-Sep-29 02:33N 38°43' W 073°06'1 0.8
2014-Sep-29 01:33N 38°43' W 073°05'1 0.8
2014-Sep-29 00:33N 38°43' W 073°04'1 0.8
2014-Sep-28 23:33N 38°44' W 073°03'2 0.8
2014-Sep-28 21:27N 38°45' W 073°01'1 0.9
2014-Sep-28 20:09N 38°46' W 073°01'1 0.9
2014-Sep-28 19:33N 38°46' W 073°00'4 0.8
2014-Sep-28 14:09N 38°49' W 072°56'1 1.2
2014-Sep-28 13:33N 38°49' W 072°55'1 1.3
2014-Sep-28 12:24N 38°50' W 072°53'1 1.2
2014-Sep-28 11:12N 38°50' W 072°52'1 1.2
2014-Sep-28 10:33N 38°51' W 072°51'1 1.3
2014-Sep-28 09:30N 38°52' W 072°50'1 1.3
2014-Sep-28 08:27N 38°53' W 072°49'4 1.3
2014-Sep-28 05:24N 38°57' W 072°46'1 1.2
2014-Sep-28 04:33N 38°57' W 072°46'1 1.1
2014-Sep-28 03:33N 38°59' W 072°45'1 0.9
2014-Sep-28 02:33N 38°59' W 072°45'1 0.8
2014-Sep-28 01:33N 39°00' W 072°44'3 1.1
2014-Sep-27 22:30N 39°02' W 072°41'1 1.2
2014-Sep-27 21:33N 39°03' W 072°40'1 1.3
2014-Sep-27 20:33N 39°04' W 072°38'2 1.2
2014-Sep-27 19:18N 39°05' W 072°37'1 1.2
2014-Sep-27 18:33N 39°06' W 072°37'1 1.2
2014-Sep-27 17:33N 39°07' W 072°36'1 1.3
2014-Sep-27 16:33N 39°08' W 072°36'1 1.3
2014-Sep-27 15:30N 39°09' W 072°35'1 1.4
2014-Sep-27 14:33N 39°11' W 072°34'2 1.6
2014-Sep-27 13:09N 39°13' W 072°33'1 1.5
2014-Sep-27 12:27N 39°14' W 072°33'1 1.5
2014-Sep-27 11:33N 39°15' W 072°33'1 1.5
2014-Sep-27 10:33N 39°17' W 072°32'1 1.3
2014-Sep-27 09:33N 39°18' W 072°32'1 1.3
2014-Sep-27 08:33N 39°19' W 072°31'1 1.5
2014-Sep-27 07:33N 39°20' W 072°30'2 1.9
2014-Sep-27 06:30N 39°22' W 072°29'2 1.6
2014-Sep-27 05:33N 39°23' W 072°27'2 1.8
2014-Sep-27 04:33N 39°25' W 072°26'2 2.0
2014-Sep-27 03:33N 39°26' W 072°25'2 2.1
2014-Sep-27 02:33N 39°28' W 072°24'2 1.9
2014-Sep-27 01:33N 39°30' W 072°23'2 1.8
2014-Sep-27 00:33N 39°32' W 072°22'2 1.9
2014-Sep-26 23:33N 39°34' W 072°21'2 1.9
2014-Sep-26 22:33N 39°35' W 072°20'2 1.9
2014-Sep-26 21:33N 39°37' W 072°19'2 2.0
2014-Sep-26 20:34N 39°39' W 072°18'2 2.0
2014-Sep-26 19:34N 39°41' W 072°17'2 2.2
2014-Sep-26 18:33N 39°43' W 072°16'2 2.2
2014-Sep-26 17:32N 39°45' W 072°15'2 2.3
2014-Sep-26 16:34N 39°47' W 072°14'2 2.3
2014-Sep-26 15:34N 39°49' W 072°12'2 1.7
2014-Sep-26 14:33N 39°50' W 072°14'4 3.9
2014-Sep-26 13:31N 39°49' W 072°19'2 2.1
2014-Sep-26 12:23N 39°50' W 072°22'2 2.2
2014-Sep-26 11:28N 39°50' W 072°25'6 2.7
2014-Sep-26 09:23N 39°52' W 072°32'2 2.2
2014-Sep-26 08:33N 39°52' W 072°34'2 2.1
2014-Sep-26 07:32N 39°52' W 072°37'3 2.3
2014-Sep-26 06:23N 39°53' W 072°40'2 2.1
2014-Sep-26 05:30N 39°53' W 072°43'2 1.8
2014-Sep-26 04:13N 39°53' W 072°46'1 1.8
2014-Sep-26 03:29N 39°53' W 072°47'2 1.6
2014-Sep-26 02:18N 39°54' W 072°50'17 3.5
2014-Sep-25 21:19N 39°58' W 073°12'8 7.2
2014-Sep-25 20:11N 40°02' W 073°21'2110.1
2014-Sep-25 18:04N 40°18' W 073°39'510.4
2014-Sep-25 17:33N 40°22' W 073°44'1010.4
2014-Sep-25 16:33N 40°32' W 073°41'0 0.2
2014-Sep-25 15:33N 40°32' W 073°42'0 0.0
2014-Sep-25 14:27N 40°32' W 073°42'0 0.0
2014-Sep-25 13:21N 40°32' W 073°42'0 0.1
2014-Sep-25 12:30N 40°32' W 073°42'0 0.0
2014-Sep-25 11:27N 40°32' W 073°42'0 0.0
2014-Sep-25 10:33N 40°32' W 073°42'0 0.0
2014-Sep-25 09:33N 40°32' W 073°42'0 0.0
2014-Sep-25 08:33N 40°32' W 073°42'0 0.0
2014-Sep-25 07:33N 40°32' W 073°42'0 0.0
2014-Sep-25 06:24N 40°32' W 073°42'0 0.0
2014-Sep-25 05:33N 40°32' W 073°41'0 0.0
2014-Sep-25 04:33N 40°32' W 073°41'0 0.0
2014-Sep-25 03:27N 40°32' W 073°41'0 0.0
2014-Sep-25 02:27N 40°32' W 073°41'0 0.0
2014-Sep-25 01:24N 40°32' W 073°41'0 0.0
2014-Sep-25 00:33N 40°32' W 073°41'0 0.0
2014-Sep-24 23:27N 40°32' W 073°41'0 0.0
2014-Sep-24 22:33N 40°32' W 073°41'0 0.0
2014-Sep-24 21:33N 40°32' W 073°41'0 0.0
2014-Sep-24 20:33N 40°32' W 073°41'0 0.0
2014-Sep-24 19:33N 40°32' W 073°41'0 0.0
2014-Sep-24 18:33N 40°32' W 073°41'0 0.0
2014-Sep-24 17:33N 40°32' W 073°41'0 0.0
2014-Sep-24 16:21N 40°32' W 073°41'0 0.1
2014-Sep-24 15:33N 40°32' W 073°41'0 0.0
2014-Sep-24 14:27N 40°32' W 073°41'0 0.1
2014-Sep-24 13:30N 40°32' W 073°41'0 0.0
2014-Sep-24 12:33N 40°32' W 073°41'0 0.0
2014-Sep-24 11:30N 40°32' W 073°41'0 0.0
2014-Sep-24 10:33N 40°32' W 073°41'0 0.1
2014-Sep-24 09:33N 40°32' W 073°41'0 0.1
2014-Sep-24 08:30N 40°32' W 073°41'0 0.0
2014-Sep-24 07:33N 40°32' W 073°41'0 0.0
2014-Sep-24 06:21N 40°32' W 073°41'0 0.0
2014-Sep-24 05:30N 40°32' W 073°41'0 0.0
2014-Sep-24 04:09N 40°32' W 073°41'0 0.0
2014-Sep-24 01:12N 40°32' W 073°41'0 0.0
2014-Sep-24 00:30N 40°32' W 073°41'0 0.0
2014-Sep-23 23:21N 40°32' W 073°41'0 0.0
2014-Sep-23 22:33N 40°32' W 073°41'0 0.0
2014-Sep-23 21:33N 40°32' W 073°41'0 0.0
2014-Sep-23 20:33N 40°32' W 073°41'0 0.0
2014-Sep-23 19:15N 40°32' W 073°41'0 0.0
2014-Sep-23 18:33N 40°32' W 073°41'0 0.0
2014-Sep-23 16:33N 40°32' W 073°41'0 0.0
2014-Sep-23 15:27N 40°32' W 073°41'0 0.0
2014-Sep-23 14:33N 40°32' W 073°41'0 0.0
2014-Sep-23 13:33N 40°32' W 073°41'0 0.0
2014-Sep-23 12:24N 40°32' W 073°41'0 0.0
2014-Sep-23 10:33N 40°32' W 073°41'0 0.0
2014-Sep-23 09:33N 40°32' W 073°41'0 0.0
2014-Sep-23 08:33N 40°32' W 073°41'0 0.0
2014-Sep-23 07:30N 40°32' W 073°41'0 0.0
2014-Sep-23 06:33N 40°32' W 073°41'0 0.0
2014-Sep-23 05:24N 40°32' W 073°41'0 0.0
2014-Sep-23 04:30N 40°32' W 073°41'0 0.0
2014-Sep-23 03:33N 40°32' W 073°41'0 0.0
2014-Sep-23 02:33N 40°32' W 073°41'0 0.0
2014-Sep-23 01:33N 40°32' W 073°41'0 0.1
2014-Sep-23 00:33N 40°32' W 073°41'0 0.0
2014-Sep-22 23:33N 40°32' W 073°41'0 0.0
2014-Sep-22 22:30N 40°32' W 073°41'0 0.1
2014-Sep-22 21:12N 40°32' W 073°41'0 0.0
2014-Sep-22 20:27N 40°32' W 073°41'0 0.0
2014-Sep-22 19:12N 40°32' W 073°41'0 0.0
2014-Sep-22 17:33N 40°32' W 073°41'0 0.0
2014-Sep-22 16:21N 40°32' W 073°41'0 0.0
2014-Sep-22 15:24N 40°32' W 073°41'0 0.0
2014-Sep-22 14:27N 40°32' W 073°41'0 0.0
2014-Sep-22 13:21N 40°32' W 073°41'0 0.0
2014-Sep-22 12:33N 40°32' W 073°41'0 0.0
2014-Sep-22 11:21N 40°32' W 073°41'0 0.0
2014-Sep-22 10:33N 40°32' W 073°41'0 0.0
2014-Sep-22 09:33N 40°32' W 073°41'0 0.0
2014-Sep-22 08:33N 40°32' W 073°41'0 0.0
2014-Sep-22 07:33N 40°32' W 073°41'0 0.0
2014-Sep-22 06:33N 40°32' W 073°41'0 0.1
2014-Sep-22 05:27N 40°32' W 073°41'0 0.1
2014-Sep-22 04:33N 40°33' W 073°41'0 0.0
2014-Sep-22 03:30N 40°33' W 073°41'0 0.0
2014-Sep-22 02:33N 40°33' W 073°41'0 0.0
2014-Sep-22 01:33N 40°33' W 073°41'0 0.1
2014-Sep-22 00:15N 40°33' W 073°41'0 0.0
2014-Sep-21 23:33N 40°33' W 073°41'0 0.0
2014-Sep-21 22:33N 40°33' W 073°41'0 0.0
2014-Sep-21 21:30N 40°33' W 073°41'0 0.0
2014-Sep-21 20:33N 40°33' W 073°41'0 0.0
2014-Sep-21 19:33N 40°33' W 073°41'0 0.0
2014-Sep-21 18:33N 40°33' W 073°41'0 0.0
2014-Sep-21 17:33N 40°33' W 073°41'0 0.0
2014-Sep-21 16:30N 40°33' W 073°41'0 0.0
2014-Sep-21 15:30N 40°33' W 073°41'0 0.0
2014-Sep-21 14:06N 40°33' W 073°41'0 0.0
2014-Sep-21 13:24N 40°33' W 073°41'0 0.0
2014-Sep-21 12:33N 40°33' W 073°41'0 0.0
2014-Sep-21 11:24N 40°33' W 073°41'0 0.0
2014-Sep-21 09:33N 40°33' W 073°41'0 0.0
2014-Sep-21 02:12N 40°33' W 073°41'0 0.0
2014-Sep-21 01:33N 40°33' W 073°41'0 0.0
2014-Sep-21 00:27N 40°33' W 073°41'0 0.0
2014-Sep-20 23:33N 40°33' W 073°41'0 0.0
2014-Sep-20 22:32N 40°33' W 073°41'0 0.0
2014-Sep-20 21:23N 40°33' W 073°41'0 0.0
2014-Sep-20 20:29N 40°33' W 073°41'0 0.0
2014-Sep-20 18:20N 40°33' W 073°41'0 0.0
2014-Sep-20 16:23N 40°33' W 073°41'0 0.0
2014-Sep-20 15:20N 40°33' W 073°41'0 0.0
2014-Sep-20 14:29N 40°33' W 073°41'0 0.0
2014-Sep-20 13:20N 40°33' W 073°41'0 0.0
2014-Sep-20 12:32N 40°33' W 073°41'0 0.0
2014-Sep-20 11:29N 40°33' W 073°41'0 0.0
2014-Sep-20 10:20N 40°32' W 073°41'0 0.0
2014-Sep-20 09:17N 40°32' W 073°41'0 0.0
2014-Sep-20 08:29N 40°32' W 073°41'0 0.0
2014-Sep-20 07:26N 40°32' W 073°41'0 0.0
2014-Sep-20 06:32N 40°32' W 073°41'0 0.0
2014-Sep-20 05:32N 40°32' W 073°41'0 0.0
2014-Sep-20 04:32N 40°32' W 073°41'0 0.0
2014-Sep-20 03:29N 40°32' W 073°41'  

Dump ship's entire track history